CDT,Max TemperatureF,Mean TemperatureF,Min TemperatureF,Max Dew PointF,MeanDew PointF,Min DewpointF,Max Humidity, Mean Humidity, Min Humidity, Max Sea Level PressureIn, Mean Sea Level PressureIn, Min Sea Level PressureIn, Max VisibilityMiles, Mean VisibilityMiles, Min VisibilityMiles, Max Wind SpeedMPH, Mean Wind SpeedMPH, Max Gust SpeedMPH,PrecipitationIn, CloudCover, Events, WindDirDegrees
2013-3-1,30,24,19,19,17,15,89,77,59,30.43,30.39,30.33,,,,9,6,,0.00,,,50
2013-3-2,43,30,18,32,24,15,89,78,62,30.38,30.17,29.99,,,,14,9,,0.00,,,129
2013-3-3,39,34,30,33,29,27,89,84,77,29.96,29.77,29.62,,,,22,12,29,0.00,,,118
2013-3-4,39,32,21,31,23,14,92,70,44,30.06,29.85,29.61,,,,32,16,46,0.00,,,301
2013-3-5,28,23,18,17,15,12,82,70,58,30.47,30.34,30.08,,,,32,21,43,0.00,,,332
2013-3-6,35,24,12,22,16,8,88,77,54,30.46,30.31,30.15,,,,23,11,31,0.00,,,120
2013-3-7,52,38,25,30,25,20,85,67,41,30.14,30.06,29.99,,,,24,16,30,0.00,,,131
2013-3-8,42,34,26,32,29,23,92,85,65,30.17,30.07,29.89,,,,14,8,,0.00,,,46
2013-3-9,35,32,28,32,28,21,92,88,75,30.04,29.86,29.78,,,,20,13,31,0.71,,,359
2013-3-10,25,20,10,18,12,6,81,73,68,30.24,30.18,30.08,,,,26,21,37,0.00,,,353
2013-3-11,39,24,8,24,14,3,87,71,55,30.13,30.01,29.90,,,,10,5,,0.00,,,298
2013-3-12,33,26,16,21,16,11,81,65,52,30.40,30.25,30.06,,,,23,14,33,0.00,,,327
2013-3-13,42,27,12,32,20,8,84,75,65,30.41,30.28,30.07,,,,18,7,,0.00,,,128
2013-3-14,62,49,37,42,35,29,82,65,44,30.16,30.07,29.94,,,,14,6,,0.00,,,234
2013-3-15,50,38,27,35,28,23,92,79,56,30.07,29.91,29.83,,,,17,8,,0.00,,,10
2013-3-16,30,24,17,21,14,11,81,69,54,30.26,30.21,30.11,,,,17,11,22,0.00,,,27
2013-3-17,39,29,19,34,23,13,82,74,60,30.20,29.82,29.54,,,,33,19,44,0.01,,,150
2013-3-18,33,23,14,21,7,1,71,52,33,30.11,29.95,29.70,,,,31,24,45,0.00,,,315
2013-3-19,41,27,15,18,12,7,81,61,33,30.46,30.23,30.08,,,,22,9,33,0.00,,,39
2013-3-20,34,22,9,9,6,2,80,57,34,30.49,30.34,30.12,,,,17,8,,0.00,,,42
2013-3-21,30,23,16,17,12,6,77,63,49,30.10,29.99,29.93,,,,23,17,28,0.00,,,120
2013-3-22,28,26,25,24,22,16,89,81,58,30.10,30.01,29.98,,,,18,12,,0.12,,,129
2013-3-23,30,24,21,24,20,14,89,76,60,30.28,30.21,30.11,,,,17,6,26,0.00,,,333
2013-3-24,28,20,12,19,13,7,81,73,60,30.31,30.25,30.19,,,,18,12,25,0.00,,,330
2013-3-25,28,22,17,17,13,10,81,69,51,30.42,30.38,30.31,,,,16,12,21,0.01,,,348
2013-3-26,43,26,10,22,15,5,85,65,41,30.41,30.27,30.15,,,,22,8,78,0.00,,,140
2013-3-27,53,36,21,26,22,18,85,60,31,30.20,30.17,30.12,,,,13,7,,0.00,,,148
2013-3-28,62,42,25,37,28,21,85,60,33,30.19,30.15,30.11,,,,18,8,,0.00,,,139
2013-3-29,73,51,30,44,33,25,79,52,24,30.15,30.04,29.91,,,,18,8,22,0.00,,,157
2013-3-30,66,50,35,43,33,22,85,58,18,30.03,29.98,29.94,,,,17,11,29,0.00,,,317
2013-3-31,45,34,24,33,25,15,85,69,35,30.28,30.11,30.01,,,,18,10,23,0.06,,,355